Weather History for Orange City, IA

Change the Weather History Date:

Saturday, February 1, 2014

  Actual Average Record
Temperature  
Mean Temperature 10 °F -  
Max Temperature 17 °F 29 °F 50 °F (2003)
Min Temperature -4 °F 13 °F -14 °F (1950)
Degree Days  
Heating Degree Days 55    
Moisture  
Dew Point 6 °F    
Average Humidity 75    
Maximum Humidity 93    
Minimum Humidity 62    
Precipitation  
Precipitation 0.00 in - - ()
Sea Level Pressure  
Sea Level Pressure 30.04 in    
Wind  
Wind Speed 8 mph (NW)    
Max Wind Speed 18 mph    
Max Gust Speed 25 mph    
Visibility 9 miles    
Events Snow    
Averages and records for this station are not official NWS values.
T = Trace of Precipitation, MM = Missing Value Source: NWS Daily Summary

Daily Weather History Graph

Daily Weather History Graph

Search for Another Location

Airport:

Trip Planner

Search our weather history database for the weather conditions in past years. The results will help you decide how hot, cold, wet, or windy it might be!

Date:

Astronomy

Feb. 01, 2014 Rise Set
Actual Time 7:39 AM CST 5:37 PM CST
Civil Twilight 7:09 AM CST 6:07 PM CST
Nautical Twilight 6:35 AM CST 6:41 PM CST
Astronomical Twilight 6:01 AM CST 7:14 PM CST
Moon 8:25 AM CST (2/1) 8:18 PM CST (2/1)
Length of Visible Light 10h 58m
Length of Day
9h 57m
Waxing Crescent, 5% of the Moon is Illuminated
Feb 1
Waxing Crescent
Feb 6
First Quarter
Feb 14
Full
Feb 22
Last Quarter
Mar 1
New

Hourly Weather History & Observations

Time (CST) Temp. Windchill Dew Point Humidity Pressure Visibility Wind Dir Wind Speed Gust Speed Precip Events Conditions
12:15 AM 17.6 °F 12.3 °F 8.6 °F 68% 29.93 in 10.0 mi South 3.5 mph - N/A   Overcast
12:35 AM 17.6 °F 10.7 °F 8.6 °F 68% 29.92 in 10.0 mi South 4.6 mph - N/A   Overcast
12:55 AM 17.6 °F 12.3 °F 10.4 °F 73% 29.92 in 10.0 mi South 3.5 mph - N/A   Overcast
1:15 AM 17.6 °F 10.7 °F 8.6 °F 68% 29.92 in 7.0 mi South 4.6 mph - N/A Snow Light Snow
1:35 AM 17.6 °F 9.3 °F 10.4 °F 73% 29.91 in 10.0 mi South 5.8 mph - N/A Snow Light Snow
1:55 AM 17.6 °F 7.3 °F 10.4 °F 73% 29.92 in 7.0 mi South 8.1 mph - N/A Snow Light Snow
2:15 AM 17.6 °F 6.4 °F 15.8 °F 93% 29.91 in 3.0 mi SSW 9.2 mph - N/A Snow Light Snow
2:35 AM 17.6 °F 7.3 °F 14.0 °F 86% 29.91 in 2.0 mi SSW 8.1 mph - N/A Snow Light Snow
2:55 AM 17.6 °F 8.2 °F 14.0 °F 86% 29.90 in 2.5 mi SSW 6.9 mph - N/A Snow Light Snow
3:15 AM 17.6 °F 8.2 °F 14.0 °F 86% 29.90 in 3.0 mi SSW 6.9 mph - N/A Snow Light Snow
3:35 AM 17.6 °F 8.2 °F 15.8 °F 93% 29.89 in 2.5 mi SSW 6.9 mph - N/A Snow Light Snow
3:55 AM 17.6 °F 10.7 °F 15.8 °F 93% 29.89 in 4.0 mi SSW 4.6 mph - N/A Snow Light Snow
4:15 AM 17.6 °F 9.3 °F 15.8 °F 93% 29.88 in 5.0 mi SSW 5.8 mph - N/A Snow Light Snow
4:35 AM 17.6 °F 10.7 °F 15.8 °F 93% 29.87 in 5.0 mi South 4.6 mph - N/A Snow Light Snow
4:55 AM 17.6 °F 10.7 °F 15.8 °F 93% 29.88 in 5.0 mi SSW 4.6 mph - N/A Snow Light Snow
5:15 AM 17.6 °F 9.3 °F 15.8 °F 93% 29.88 in 7.0 mi SSW 5.8 mph - N/A Snow Light Snow
5:35 AM 17.6 °F 10.7 °F 15.8 °F 93% 29.89 in 10.0 mi SSW 4.6 mph - N/A   Overcast
5:55 AM 17.6 °F 9.3 °F 15.8 °F 93% 29.89 in 10.0 mi SSW 5.8 mph - N/A   Overcast
6:15 AM 17.6 °F 8.2 °F 15.8 °F 93% 29.89 in 10.0 mi SSW 6.9 mph - N/A   Mostly Cloudy
6:35 AM 17.6 °F 9.3 °F 14.0 °F 86% 29.89 in 10.0 mi SW 5.8 mph - N/A   Scattered Clouds
6:55 AM 17.6 °F 10.7 °F 12.2 °F 79% 29.90 in 10.0 mi WSW 4.6 mph - N/A   Mostly Cloudy
7:15 AM 17.6 °F 7.3 °F 14.0 °F 86% 29.90 in 10.0 mi WSW 8.1 mph - N/A   Overcast
7:35 AM 17.6 °F 8.2 °F 14.0 °F 86% 29.91 in 10.0 mi West 6.9 mph - N/A   Overcast
7:55 AM 17.6 °F 5.7 °F 15.8 °F 93% 29.92 in 10.0 mi WNW 10.4 mph - N/A   Overcast
8:15 AM 17.6 °F 3.7 °F 14.0 °F 86% 29.93 in 5.0 mi NNW 13.8 mph 19.6 mph N/A   Mostly Cloudy
8:35 AM 15.8 °F 0.9 °F 8.6 °F 73% 29.95 in 10.0 mi NNW 15.0 mph 21.9 mph N/A   Scattered Clouds
8:55 AM 14.0 °F -0.8 °F 8.6 °F 79% 29.96 in 10.0 mi NNW 13.8 mph 20.7 mph N/A   Clear
9:15 AM 14.0 °F -2.0 °F 8.6 °F 79% 29.97 in 7.0 mi NNW 16.1 mph - N/A   Clear
9:35 AM 14.0 °F -1.4 °F 6.8 °F 73% 29.98 in 10.0 mi NNW 15.0 mph 20.7 mph N/A   Clear
9:55 AM 15.8 °F -0.6 °F 6.8 °F 68% 29.98 in 3.0 mi NW 18.4 mph 24.2 mph N/A   Haze
10:15 AM 15.8 °F 2.7 °F 6.8 °F 68% 30.00 in 5.0 mi NNW 11.5 mph 25.3 mph N/A   Haze
10:35 AM 14.0 °F -2.0 °F 6.8 °F 73% 30.01 in 10.0 mi NNW 16.1 mph 23.0 mph N/A   Clear
10:55 AM 12.2 °F -4.8 °F 3.2 °F 67% 30.03 in 10.0 mi NNW 17.3 mph 23.0 mph N/A   Clear
11:15 AM 14.0 °F -1.4 °F 6.8 °F 73% 30.02 in 10.0 mi NNW 15.0 mph 21.9 mph N/A   Clear
11:35 AM 15.8 °F 1.4 °F 5.0 °F 62% 30.04 in 10.0 mi NNW 13.8 mph 23.0 mph N/A   Clear
11:55 AM 14.0 °F -0.8 °F 5.0 °F 67% 30.04 in 10.0 mi NNW 13.8 mph 19.6 mph N/A   Clear
12:15 PM 14.0 °F -2.0 °F 5.0 °F 67% 30.04 in 10.0 mi NNW 16.1 mph 23.0 mph N/A   Clear
12:35 PM 14.0 °F -0.2 °F 5.0 °F 67% 30.05 in 10.0 mi NNW 12.7 mph 19.6 mph N/A   Scattered Clouds
12:55 PM 14.0 °F -0.2 °F 5.0 °F 67% 30.05 in 10.0 mi NNW 12.7 mph 20.7 mph N/A   Scattered Clouds
1:15 PM 14.0 °F -1.4 °F 5.0 °F 67% 30.05 in 10.0 mi NW 15.0 mph 20.7 mph N/A   Scattered Clouds
1:35 PM 15.8 °F 0.9 °F 6.8 °F 68% 30.05 in 10.0 mi NNW 15.0 mph - N/A   Scattered Clouds
1:55 PM 15.8 °F 2.7 °F 5.0 °F 62% 30.06 in 10.0 mi NW 11.5 mph 18.4 mph N/A   Mostly Cloudy
2:15 PM 15.8 °F 0.9 °F 5.0 °F 62% 30.06 in 10.0 mi NNW 15.0 mph 21.9 mph N/A   Mostly Cloudy
2:35 PM 15.8 °F 3.4 °F 6.8 °F 68% 30.07 in 10.0 mi NNW 10.4 mph 19.6 mph N/A   Mostly Cloudy
2:55 PM 15.8 °F 1.4 °F 5.0 °F 62% 30.07 in 10.0 mi NNW 13.8 mph 20.7 mph N/A   Scattered Clouds
3:15 PM 15.8 °F 1.4 °F 5.0 °F 62% 30.09 in 10.0 mi NNW 13.8 mph 21.9 mph N/A   Scattered Clouds
3:35 PM 14.0 °F -0.8 °F 5.0 °F 67% 30.09 in 10.0 mi NNW 13.8 mph 20.7 mph N/A   Scattered Clouds
3:55 PM 14.0 °F -0.2 °F 3.2 °F 62% 30.10 in 10.0 mi NNW 12.7 mph 20.7 mph N/A   Clear
4:15 PM 14.0 °F -1.4 °F 3.2 °F 62% 30.11 in 10.0 mi NNW 15.0 mph 18.4 mph N/A   Clear
4:35 PM 12.2 °F -1.8 °F 1.4 °F 62% 30.12 in 10.0 mi NNW 11.5 mph 18.4 mph N/A   Clear
4:55 PM 12.2 °F -1.0 °F 3.2 °F 67% 30.13 in 10.0 mi NW 10.4 mph 17.3 mph N/A   Clear
5:15 PM 12.2 °F -3.7 °F 1.4 °F 62% 30.13 in 10.0 mi NNW 15.0 mph - N/A   Clear
5:35 PM 10.4 °F -3.3 °F 1.4 °F 67% 30.14 in 10.0 mi NW 10.4 mph 16.1 mph N/A   Scattered Clouds
5:55 PM 10.4 °F -4.1 °F 1.4 °F 67% 30.15 in 10.0 mi NW 11.5 mph 19.6 mph N/A   Mostly Cloudy
6:15 PM 10.4 °F -4.1 °F 1.4 °F 67% 30.16 in 10.0 mi NNW 11.5 mph - N/A   Scattered Clouds
6:35 PM 8.6 °F -5.5 °F 1.4 °F 73% 30.17 in 10.0 mi NNW 10.4 mph - N/A   Clear
6:55 PM 8.6 °F -5.5 °F -0.4 °F 67% 30.18 in 10.0 mi NNW 10.4 mph - N/A   Clear
7:15 PM 6.8 °F -8.6 °F -0.4 °F 72% 30.18 in 10.0 mi NW 11.5 mph - N/A   Clear
7:35 PM 6.8 °F -8.6 °F -2.2 °F 67% 30.19 in 10.0 mi NW 11.5 mph - N/A   Clear
7:55 PM 6.8 °F -7.8 °F -2.2 °F 67% 30.19 in 10.0 mi NNW 10.4 mph - N/A   Clear
8:15 PM 6.8 °F -7.8 °F -2.2 °F 67% 30.20 in 10.0 mi NNW 10.4 mph - N/A   Clear
8:35 PM 5.0 °F -10.0 °F -2.2 °F 72% 30.21 in 10.0 mi NNW 10.4 mph - N/A   Clear
8:55 PM 5.0 °F -8.1 °F -2.2 °F 72% 30.22 in 10.0 mi NNW 8.1 mph - N/A   Clear
9:15 PM 3.2 °F -11.3 °F -2.2 °F 78% 30.22 in 10.0 mi NNW 9.2 mph - N/A   Clear
9:35 PM 3.2 °F -10.3 °F -2.2 °F 78% 30.23 in 10.0 mi NNW 8.1 mph - N/A   Clear
9:55 PM 3.2 °F -9.1 °F -2.2 °F 78% 30.24 in 10.0 mi NNW 6.9 mph - N/A   Clear
10:15 PM 3.2 °F -9.1 °F -2.2 °F 78% 30.24 in 10.0 mi NNW 6.9 mph - N/A   Clear
10:35 PM 3.2 °F -9.1 °F -2.2 °F 78% 30.24 in 10.0 mi NNW 6.9 mph - N/A   Clear
10:55 PM 3.2 °F -9.1 °F -2.2 °F 78% 30.24 in 10.0 mi NNW 6.9 mph - N/A   Clear
11:15 PM 3.2 °F -9.1 °F -2.2 °F 78% 30.24 in 10.0 mi NNW 6.9 mph - N/A   Clear
11:35 PM 3.2 °F -9.1 °F -2.2 °F 78% 30.24 in 10.0 mi NNW 6.9 mph - N/A   Clear
11:55 PM -4.0 °F -16.3 °F -9.4 °F 78% 30.25 in 10.0 mi WNW 5.8 mph - N/A   Clear